createdAt,value
2022-09-12T00:00:25.999Z,1009.10
2022-09-12T00:02:29.920Z,1009.07
2022-09-12T00:03:29.855Z,1009.06
2022-09-12T00:05:33.760Z,1009.07
2022-09-12T00:06:33.732Z,1009.07
2022-09-12T00:08:37.634Z,1009.03
2022-09-12T00:09:37.589Z,1009.04
2022-09-12T00:11:41.502Z,1008.98
2022-09-12T00:12:41.451Z,1008.98
2022-09-12T00:14:45.351Z,1008.97
2022-09-12T00:15:45.316Z,1008.96
2022-09-12T00:17:49.233Z,1008.95
2022-09-12T00:18:49.181Z,1008.93
2022-09-12T00:20:42.030Z,1008.95
2022-09-12T00:21:41.978Z,1008.93
2022-09-12T00:23:45.878Z,1008.91
2022-09-12T00:24:45.839Z,1008.89
2022-09-12T00:26:49.755Z,1008.89
2022-09-12T00:27:49.708Z,1008.89
2022-09-12T00:29:53.608Z,1008.86
2022-09-12T00:30:53.578Z,1008.90
2022-09-12T00:32:57.481Z,1008.89
2022-09-12T00:33:57.447Z,1008.84
2022-09-12T00:36:01.349Z,1008.86
2022-09-12T00:37:01.301Z,1008.83
2022-09-12T00:39:05.211Z,1008.80
2022-09-12T00:40:05.235Z,1008.85
2022-09-12T00:42:09.110Z,1008.81
2022-09-12T00:43:09.039Z,1008.80
2022-09-12T00:45:12.928Z,1008.76
2022-09-12T00:46:12.892Z,1008.78
2022-09-12T00:48:16.852Z,1008.74
2022-09-12T00:49:16.811Z,1008.75
2022-09-12T00:51:20.745Z,1008.78
2022-09-12T00:52:20.671Z,1008.71
2022-09-12T00:54:24.569Z,1008.69
2022-09-12T00:55:24.528Z,1008.67
2022-09-12T00:57:28.442Z,1008.64
2022-09-12T00:58:28.396Z,1008.67
2022-09-12T01:00:21.230Z,1008.65
2022-09-12T01:01:21.314Z,1008.63
2022-09-12T01:03:25.102Z,1008.61
2022-09-12T01:04:25.050Z,1008.63
2022-09-12T01:06:28.962Z,1008.66
2022-09-12T01:07:28.917Z,1008.65
2022-09-12T01:09:32.824Z,1008.69
2022-09-12T01:10:32.775Z,1008.69
2022-09-12T01:12:25.810Z,1008.65
2022-09-12T01:13:25.772Z,1008.66
2022-09-12T01:15:29.688Z,1008.67
2022-09-12T01:16:29.684Z,1008.66
2022-09-12T01:18:33.531Z,1008.65
2022-09-12T01:19:33.496Z,1008.64
2022-09-12T01:21:37.408Z,1008.61
2022-09-12T01:22:37.364Z,1008.58
2022-09-12T01:24:41.272Z,1008.57
2022-09-12T01:25:41.233Z,1008.56
2022-09-12T01:27:45.123Z,1008.51
2022-09-12T01:28:45.102Z,1008.54
2022-09-12T01:30:37.941Z,1008.55
2022-09-12T01:31:37.896Z,1008.53
2022-09-12T01:33:41.799Z,1008.52
2022-09-12T01:34:41.753Z,1008.54
2022-09-12T01:36:45.486Z,1008.53
2022-09-12T01:37:45.452Z,1008.48
2022-09-12T01:39:49.400Z,1008.49
2022-09-12T01:40:49.313Z,1008.52
2022-09-12T01:42:53.224Z,1008.53
2022-09-12T01:43:53.179Z,1008.51
2022-09-12T01:45:57.105Z,1008.54
2022-09-12T01:46:57.052Z,1008.48
2022-09-12T01:49:00.957Z,1008.48
2022-09-12T01:50:00.911Z,1008.46
2022-09-12T01:52:04.815Z,1008.48
2022-09-12T01:53:04.784Z,1008.47
2022-09-12T01:55:09.895Z,1008.45
2022-09-12T01:56:08.643Z,1008.45
2022-09-12T01:58:12.548Z,1008.41
2022-09-12T01:59:12.511Z,1008.37
2022-09-12T02:01:16.488Z,1008.36
2022-09-12T02:02:16.446Z,1008.33
2022-09-12T02:04:20.289Z,1008.33
2022-09-12T02:05:20.240Z,1008.32
2022-09-12T02:07:24.140Z,1008.29
2022-09-12T02:08:24.105Z,1008.29
2022-09-12T02:10:16.945Z,1008.29
2022-09-12T02:11:16.895Z,1008.27
2022-09-12T02:13:20.809Z,1008.25
2022-09-12T02:14:20.762Z,1008.25
2022-09-12T02:16:24.681Z,1008.25
2022-09-12T02:17:24.633Z,1008.24
2022-09-12T02:19:28.543Z,1008.25
2022-09-12T02:20:46.892Z,1008.23
2022-09-12T02:22:32.393Z,1008.19
2022-09-12T02:23:32.360Z,1008.21
2022-09-12T02:25:36.272Z,1008.16
2022-09-12T02:26:36.226Z,1008.17
2022-09-12T02:28:40.135Z,1008.14
2022-09-12T02:29:40.092Z,1008.16
2022-09-12T02:31:44.005Z,1008.13
2022-09-12T02:32:43.957Z,1008.10
2022-09-12T02:34:47.865Z,1008.11
2022-09-12T02:35:47.818Z,1008.11
2022-09-12T02:37:51.721Z,1008.10
2022-09-12T02:38:51.690Z,1008.13
2022-09-12T02:40:44.523Z,1008.13
2022-09-12T02:41:44.481Z,1008.12
2022-09-12T02:43:48.387Z,1008.10
2022-09-12T02:44:48.340Z,1008.13
2022-09-12T02:46:52.238Z,1008.09
2022-09-12T02:47:52.206Z,1008.09
2022-09-12T02:49:56.118Z,1008.08
2022-09-12T02:50:56.073Z,1008.07
2022-09-12T02:52:59.970Z,1008.05
2022-09-12T02:53:59.936Z,1008.06
2022-09-12T02:56:03.849Z,1008.02
2022-09-12T02:57:03.805Z,1008.00
2022-09-12T02:59:07.714Z,1007.99
2022-09-12T03:00:07.665Z,1008.01
2022-09-12T03:02:11.661Z,1008.00
2022-09-12T03:03:11.541Z,1008.00
2022-09-12T03:05:15.432Z,1008.00
2022-09-12T03:06:15.395Z,1007.98
2022-09-12T03:08:19.305Z,1007.95
2022-09-12T03:09:19.264Z,1007.95
2022-09-12T03:11:23.161Z,1007.94
2022-09-12T03:12:23.123Z,1007.95
2022-09-12T03:14:27.058Z,1007.92
2022-09-12T03:15:26.991Z,1007.92
2022-09-12T03:17:30.890Z,1007.96
2022-09-12T03:18:30.859Z,1007.91
2022-09-12T03:20:23.698Z,1007.91
2022-09-12T03:21:23.649Z,1007.93
2022-09-12T03:23:27.547Z,1007.88
2022-09-12T03:24:27.514Z,1007.88
2022-09-12T03:26:31.423Z,1007.93
2022-09-12T03:27:31.380Z,1007.92
2022-09-12T03:29:35.294Z,1007.94
2022-09-12T03:30:35.278Z,1007.96
2022-09-12T03:32:39.157Z,1007.94
2022-09-12T03:33:39.112Z,1007.98
2022-09-12T03:35:43.006Z,1007.93
2022-09-12T03:36:42.976Z,1007.97
2022-09-12T03:38:47.057Z,1007.99
2022-09-12T03:39:46.868Z,1007.99
2022-09-12T03:41:50.749Z,1007.96
2022-09-12T03:42:50.701Z,1007.95
2022-09-12T03:44:54.604Z,1007.91
2022-09-12T03:45:54.634Z,1007.92
2022-09-12T03:47:58.482Z,1007.98
2022-09-12T03:48:58.438Z,1007.94
2022-09-12T03:50:51.272Z,1007.99
2022-09-12T03:51:51.232Z,1008.00
2022-09-12T03:53:55.138Z,1007.99
2022-09-12T03:54:55.091Z,1007.99
2022-09-12T03:56:59.002Z,1007.98
2022-09-12T03:57:58.954Z,1007.98
2022-09-12T03:59:51.892Z,1007.97
2022-09-12T04:00:51.824Z,1007.96
2022-09-12T04:02:55.649Z,1007.96
2022-09-12T04:03:55.612Z,1007.93
2022-09-12T04:05:59.530Z,1007.91
2022-09-12T04:06:59.476Z,1007.90
2022-09-12T04:09:03.387Z,1007.86
2022-09-12T04:10:04.018Z,1007.82
2022-09-12T04:12:07.254Z,1007.80
2022-09-12T04:13:07.209Z,1007.75
2022-09-12T04:15:11.106Z,1007.74
2022-09-12T04:16:11.178Z,1007.73
2022-09-12T04:18:14.979Z,1007.73
2022-09-12T04:19:14.936Z,1007.75
2022-09-12T04:21:18.858Z,1007.76
2022-09-12T04:22:18.803Z,1007.75
2022-09-12T04:24:22.704Z,1007.75
2022-09-12T04:25:22.662Z,1007.74
2022-09-12T04:27:26.575Z,1007.76
2022-09-12T04:28:26.524Z,1007.71
2022-09-12T04:30:19.356Z,1007.74
2022-09-12T04:31:19.321Z,1007.72
2022-09-12T04:33:23.241Z,1007.69
2022-09-12T04:34:23.185Z,1007.71
2022-09-12T04:36:27.088Z,1007.66
2022-09-12T04:37:27.053Z,1007.65
2022-09-12T04:39:30.963Z,1007.68
2022-09-12T04:40:30.913Z,1007.68
2022-09-12T04:42:34.814Z,1007.67
2022-09-12T04:43:34.775Z,1007.70
2022-09-12T04:45:38.704Z,1007.68
2022-09-12T04:46:38.642Z,1007.69
2022-09-12T04:48:42.674Z,1007.69
2022-09-12T04:49:42.576Z,1007.62
2022-09-12T04:51:46.478Z,1007.63
2022-09-12T04:52:46.450Z,1007.61
2022-09-12T04:54:50.367Z,1007.58
2022-09-12T04:55:50.307Z,1007.61
2022-09-12T04:57:54.208Z,1007.57
2022-09-12T04:58:54.174Z,1007.61
2022-09-12T05:00:47.017Z,1007.58
2022-09-12T05:01:46.965Z,1007.56
2022-09-12T05:03:50.862Z,1007.52
2022-09-12T05:04:50.830Z,1007.54
2022-09-12T05:06:54.743Z,1007.48
2022-09-12T05:07:54.693Z,1007.50
2022-09-12T05:09:58.600Z,1007.42
2022-09-12T05:10:58.558Z,1007.45
2022-09-12T05:13:08.073Z,1007.54
2022-09-12T05:14:08.027Z,1007.54
2022-09-12T05:16:20.010Z,1007.54
2022-09-12T05:17:19.501Z,1007.57
2022-09-12T05:20:57.700Z,1007.59
2022-09-12T05:21:57.493Z,1007.62
2022-09-12T05:24:16.424Z,1007.61
2022-09-12T05:25:16.189Z,1007.60
2022-09-12T05:27:34.130Z,1007.58
2022-09-12T05:28:33.901Z,1007.60
2022-09-12T05:30:27.418Z,1007.61
2022-09-12T05:31:27.344Z,1007.60
2022-09-12T05:33:34.114Z,1007.62
2022-09-12T05:34:33.865Z,1007.59
2022-09-12T05:38:07.934Z,1007.59
2022-09-12T05:39:07.509Z,1007.62
2022-09-12T05:42:15.446Z,1007.59
2022-09-12T05:43:14.993Z,1007.60
2022-09-12T05:45:32.930Z,1007.64
2022-09-12T05:46:32.855Z,1007.65
2022-09-12T05:48:55.147Z,1007.63
2022-09-12T05:49:50.025Z,1007.66
2022-09-12T05:52:48.040Z,1007.67
2022-09-12T05:53:47.793Z,1007.65
2022-09-12T05:56:05.780Z,1007.65
2022-09-12T05:57:05.524Z,1007.67
2022-09-12T05:59:34.897Z,1007.70
2022-09-12T06:00:34.708Z,1007.70
2022-09-12T06:02:38.621Z,1007.69
2022-09-12T06:03:38.533Z,1007.69
2022-09-12T06:06:46.916Z,1007.70
2022-09-12T06:07:46.443Z,1007.72
2022-09-12T06:10:05.957Z,1007.76
2022-09-12T06:11:05.533Z,1007.76
2022-09-12T06:13:16.966Z,1007.76
2022-09-12T06:14:16.525Z,1007.73
2022-09-12T06:16:21.247Z,1007.76
2022-09-12T06:17:20.726Z,1007.74
2022-09-12T06:19:27.482Z,1007.70
2022-09-12T06:20:27.061Z,1007.71
2022-09-12T06:22:45.457Z,1007.72
2022-09-12T06:23:45.212Z,1007.74
2022-09-12T06:26:27.391Z,1007.76
2022-09-12T06:27:27.358Z,1007.75
2022-09-12T06:30:25.650Z,1007.77
2022-09-12T06:31:25.121Z,1007.79
2022-09-12T06:33:47.683Z,1007.79
2022-09-12T06:34:47.447Z,1007.76
2022-09-12T06:37:15.280Z,1007.76
2022-09-12T06:38:15.032Z,1007.79
2022-09-12T06:40:11.151Z,1007.83
2022-09-12T06:41:11.015Z,1007.83
2022-09-12T06:43:16.737Z,1007.84
2022-09-12T06:44:16.478Z,1007.88
2022-09-12T06:46:38.169Z,1007.89
2022-09-12T06:47:38.130Z,1007.87
2022-09-12T06:50:24.431Z,1007.91
2022-09-12T06:51:24.109Z,1007.90
2022-09-12T06:53:53.333Z,1007.91
2022-09-12T06:54:53.284Z,1007.89
2022-09-12T06:56:57.178Z,1007.90
2022-09-12T06:57:57.150Z,1007.85
2022-09-12T07:00:01.063Z,1007.83
2022-09-12T07:01:01.037Z,1007.86
2022-09-12T07:03:04.916Z,1007.85
2022-09-12T07:04:04.879Z,1007.90
2022-09-12T07:06:08.790Z,1007.87
2022-09-12T07:07:08.744Z,1007.86
2022-09-12T07:09:12.655Z,1007.84
2022-09-12T07:10:12.613Z,1007.84
2022-09-12T07:12:16.524Z,1007.80
2022-09-12T07:13:16.477Z,1007.83
2022-09-12T07:15:20.384Z,1007.79
2022-09-12T07:16:20.442Z,1007.80
2022-09-12T07:18:24.270Z,1007.82
2022-09-12T07:19:24.221Z,1007.78
2022-09-12T07:21:28.140Z,1007.80
2022-09-12T07:22:28.088Z,1007.81
2022-09-12T07:24:32.034Z,1007.83
2022-09-12T07:25:31.966Z,1007.86
2022-09-12T07:27:35.854Z,1007.86
2022-09-12T07:28:35.820Z,1007.87
2022-09-12T07:30:28.717Z,1007.83
2022-09-12T07:31:28.616Z,1007.81
2022-09-12T07:33:32.519Z,1007.83
2022-09-12T07:34:32.481Z,1007.82
2022-09-12T07:36:36.399Z,1007.85
2022-09-12T07:37:36.353Z,1007.85
2022-09-12T07:39:40.276Z,1007.93
2022-09-12T07:40:40.236Z,1007.88
2022-09-12T07:41:40.201Z,1007.89
2022-09-12T07:42:40.157Z,1007.91
2022-09-12T07:43:40.121Z,1007.88
2022-09-12T07:44:40.091Z,1007.88
2022-09-12T07:45:40.204Z,1007.89
2022-09-12T07:46:40.064Z,1007.86
2022-09-12T07:47:40.000Z,1007.87
2022-09-12T07:48:39.968Z,1007.87
2022-09-12T07:49:39.940Z,1007.85
2022-09-12T07:50:43.208Z,1007.87
2022-09-12T07:51:39.868Z,1007.87
2022-09-12T07:52:39.844Z,1007.86
2022-09-12T07:53:39.804Z,1007.83
2022-09-12T07:54:39.783Z,1007.83
2022-09-12T07:55:39.743Z,1007.83
2022-09-12T07:56:39.746Z,1007.85
2022-09-12T07:57:39.680Z,1007.84
2022-09-12T07:58:39.648Z,1007.85
2022-09-12T07:59:52.418Z,1007.88
2022-09-12T08:00:39.592Z,1007.87
2022-09-12T08:01:39.641Z,1007.87
2022-09-12T08:02:39.552Z,1007.91
2022-09-12T08:03:39.509Z,1007.87
2022-09-12T08:04:39.472Z,1007.87
2022-09-12T08:05:39.430Z,1007.85
2022-09-12T08:06:39.400Z,1007.89
2022-09-12T08:07:39.367Z,1007.86
2022-09-12T08:08:39.343Z,1007.85
2022-09-12T08:09:39.307Z,1007.88
2022-09-12T08:10:39.281Z,1007.88
2022-09-12T08:11:39.243Z,1007.85
2022-09-12T08:12:39.211Z,1007.86
2022-09-12T08:13:39.180Z,1007.86
2022-09-12T08:14:39.153Z,1007.85
2022-09-12T08:15:39.149Z,1007.88
2022-09-12T08:16:39.088Z,1007.87
2022-09-12T08:17:39.117Z,1007.88
2022-09-12T08:18:39.033Z,1007.87
2022-09-12T08:19:39.001Z,1007.88
2022-09-12T08:20:38.966Z,1007.87
2022-09-12T08:21:38.932Z,1007.86
2022-09-12T08:22:38.908Z,1007.90
2022-09-12T08:23:38.873Z,1007.89
2022-09-12T08:24:38.840Z,1007.88
2022-09-12T08:25:38.810Z,1007.90
2022-09-12T08:26:38.781Z,1007.91
2022-09-12T08:27:38.755Z,1007.89
2022-09-12T08:28:38.715Z,1007.88
2022-09-12T08:29:38.688Z,1007.93
2022-09-12T08:30:38.709Z,1007.87
2022-09-12T08:31:38.625Z,1007.86
2022-09-12T08:32:38.596Z,1007.87
2022-09-12T08:33:38.570Z,1007.83
2022-09-12T08:34:38.535Z,1007.81
2022-09-12T08:35:38.503Z,1007.84
2022-09-12T08:36:38.477Z,1007.82
2022-09-12T08:37:38.440Z,1007.85
2022-09-12T08:38:38.425Z,1007.90
2022-09-12T08:39:38.431Z,1007.89
2022-09-12T08:40:38.356Z,1007.89
2022-09-12T08:41:38.320Z,1007.91
2022-09-12T08:42:38.294Z,1007.92
2022-09-12T08:43:38.256Z,1007.93
2022-09-12T08:44:38.228Z,1007.92
2022-09-12T08:45:38.250Z,1007.89
2022-09-12T08:46:38.177Z,1007.91
2022-09-12T08:47:38.147Z,1007.89
2022-09-12T08:48:38.113Z,1007.91
2022-09-12T08:49:38.077Z,1007.87
2022-09-12T08:50:38.053Z,1007.85
2022-09-12T08:51:38.021Z,1007.86
2022-09-12T08:52:37.989Z,1007.86
2022-09-12T08:53:37.952Z,1007.87
2022-09-12T08:54:37.936Z,1007.89
2022-09-12T08:55:37.901Z,1007.86
2022-09-12T08:56:37.871Z,1007.90
2022-09-12T08:57:37.837Z,1007.87
2022-09-12T08:58:37.806Z,1007.86
2022-09-12T08:59:37.778Z,1007.88
2022-09-12T09:00:37.746Z,1007.88
2022-09-12T09:01:37.793Z,1007.86
2022-09-12T09:02:37.700Z,1007.88
2022-09-12T09:03:37.662Z,1007.93
2022-09-12T09:04:37.628Z,1007.88
2022-09-12T09:05:37.596Z,1007.87
2022-09-12T09:06:37.581Z,1007.84
2022-09-12T09:07:37.538Z,1007.82
2022-09-12T09:08:37.505Z,1007.80
2022-09-12T09:09:37.472Z,1007.77
2022-09-12T09:10:37.444Z,1007.74
2022-09-12T09:11:37.410Z,1007.74
2022-09-12T09:12:37.387Z,1007.72
2022-09-12T09:13:37.355Z,1007.69
2022-09-12T09:14:37.414Z,1007.70
2022-09-12T09:15:37.333Z,1007.70
2022-09-12T09:16:37.264Z,1007.68
2022-09-12T09:17:37.229Z,1007.67
2022-09-12T09:18:39.802Z,1007.70
2022-09-12T09:19:37.176Z,1007.71
2022-09-12T09:20:37.147Z,1007.70
2022-09-12T09:21:37.121Z,1007.69
2022-09-12T09:22:37.084Z,1007.66
2022-09-12T09:23:37.092Z,1007.64
2022-09-12T09:24:37.027Z,1007.58
2022-09-12T09:25:36.992Z,1007.57
2022-09-12T09:26:36.974Z,1007.59
2022-09-12T09:27:41.012Z,1007.60
2022-09-12T09:28:36.979Z,1007.61
2022-09-12T09:29:36.876Z,1007.62
2022-09-12T09:30:36.889Z,1007.61
2022-09-12T09:31:36.816Z,1007.61
2022-09-12T09:32:36.787Z,1007.58
2022-09-12T09:33:36.822Z,1007.56
2022-09-12T09:34:36.731Z,1007.57
2022-09-12T09:35:36.851Z,1007.51
2022-09-12T09:36:36.671Z,1007.52
2022-09-12T09:37:36.641Z,1007.51
2022-09-12T09:38:36.617Z,1007.57
2022-09-12T09:39:36.584Z,1007.53
2022-09-12T09:40:36.551Z,1007.50
2022-09-12T09:41:36.531Z,1007.50
2022-09-12T09:42:36.497Z,1007.51
2022-09-12T09:43:36.467Z,1007.51
2022-09-12T09:44:36.431Z,1007.44
2022-09-12T09:45:36.406Z,1007.44
2022-09-12T09:46:36.412Z,1007.48
2022-09-12T09:47:36.349Z,1007.48
2022-09-12T09:48:36.348Z,1007.46
2022-09-12T09:49:36.287Z,1007.48
2022-09-12T09:50:36.261Z,1007.44
2022-09-12T09:51:36.227Z,1007.43
2022-09-12T09:52:36.203Z,1007.41
2022-09-12T09:53:36.174Z,1007.44
2022-09-12T09:54:36.146Z,1007.41
2022-09-12T09:55:36.122Z,1007.42
2022-09-12T09:56:36.089Z,1007.41
2022-09-12T09:57:36.066Z,1007.40
2022-09-12T09:58:36.096Z,1007.37
2022-09-12T09:59:35.997Z,1007.32
2022-09-12T10:00:35.969Z,1007.31
2022-09-12T10:01:35.974Z,1007.29
2022-09-12T10:02:35.968Z,1007.28
2022-09-12T10:03:35.948Z,1007.26
2022-09-12T10:04:40.581Z,1007.24
2022-09-12T10:05:35.825Z,1007.24
2022-09-12T10:06:35.800Z,1007.24
2022-09-12T10:07:35.765Z,1007.24
2022-09-12T10:08:35.789Z,1007.21
2022-09-12T10:09:35.712Z,1007.25
2022-09-12T10:10:35.681Z,1007.24
2022-09-12T10:11:35.652Z,1007.25
2022-09-12T10:12:35.631Z,1007.26
2022-09-12T10:13:35.645Z,1007.21
2022-09-12T10:14:35.567Z,1007.20
2022-09-12T10:15:35.598Z,1007.15
2022-09-12T10:16:35.510Z,1007.17
2022-09-12T10:17:35.490Z,1007.18
2022-09-12T10:18:35.451Z,1007.18
2022-09-12T10:19:35.427Z,1007.20
2022-09-12T10:20:35.398Z,1007.16
2022-09-12T10:21:35.367Z,1007.14
2022-09-12T10:22:35.348Z,1007.16
2022-09-12T10:23:35.378Z,1007.16
2022-09-12T10:24:35.288Z,1007.13
2022-09-12T10:25:35.259Z,1007.17
2022-09-12T10:26:35.227Z,1007.15
2022-09-12T10:27:35.198Z,1007.10
2022-09-12T10:28:35.209Z,1007.07
2022-09-12T10:29:35.146Z,1007.09
2022-09-12T10:30:35.126Z,1007.06
2022-09-12T10:31:35.091Z,1007.04
2022-09-12T10:32:35.064Z,1007.06
2022-09-12T10:33:35.038Z,1007.08
2022-09-12T10:34:35.015Z,1007.12
2022-09-12T10:35:34.978Z,1007.08
2022-09-12T10:36:34.948Z,1007.11
2022-09-12T10:37:34.923Z,1007.14
2022-09-12T10:38:34.896Z,1007.10
2022-09-12T10:39:34.866Z,1007.08
2022-09-12T10:40:34.843Z,1007.11
2022-09-12T10:41:34.822Z,1007.05
2022-09-12T10:42:34.786Z,1006.99
2022-09-12T10:43:34.768Z,1007.01
2022-09-12T10:44:34.733Z,1007.03
2022-09-12T10:45:34.706Z,1006.98
2022-09-12T10:46:34.681Z,1006.98
2022-09-12T10:47:34.648Z,1006.97
2022-09-12T10:48:34.628Z,1007.01
2022-09-12T10:49:34.597Z,1007.00
2022-09-12T10:50:34.577Z,1006.97
2022-09-12T10:51:34.547Z,1006.92
2022-09-12T10:52:34.518Z,1006.95
2022-09-12T10:53:34.934Z,1006.92
2022-09-12T10:54:34.468Z,1006.92
2022-09-12T10:55:34.451Z,1006.90
2022-09-12T10:56:34.422Z,1006.90
2022-09-12T10:57:34.391Z,1006.93
2022-09-12T10:58:34.364Z,1006.90
2022-09-12T10:59:34.353Z,1006.86
2022-09-12T11:00:34.309Z,1006.89
2022-09-12T11:01:34.303Z,1006.87
2022-09-12T11:02:34.280Z,1006.83
2022-09-12T11:03:34.235Z,1006.85
2022-09-12T11:04:34.213Z,1006.81
2022-09-12T11:05:34.182Z,1006.83
2022-09-12T11:06:34.155Z,1006.82
2022-09-12T11:07:34.132Z,1006.80
2022-09-12T11:08:34.106Z,1006.80
2022-09-12T11:09:34.082Z,1006.75
2022-09-12T11:10:37.348Z,1006.76
2022-09-12T11:11:34.030Z,1006.72
2022-09-12T11:12:34.002Z,1006.68
2022-09-12T11:13:33.998Z,1006.68
2022-09-12T11:14:33.963Z,1006.65
2022-09-12T11:15:33.968Z,1006.65
2022-09-12T11:16:33.905Z,1006.66
2022-09-12T11:17:33.876Z,1006.60
2022-09-12T11:18:33.865Z,1006.58
2022-09-12T11:19:33.829Z,1006.56
2022-09-12T11:20:33.812Z,1006.56
2022-09-12T11:21:33.785Z,1006.53
2022-09-12T11:22:33.770Z,1006.58
2022-09-12T11:23:33.745Z,1006.56
2022-09-12T11:24:33.709Z,1006.49
2022-09-12T11:25:33.683Z,1006.50
2022-09-12T11:26:33.666Z,1006.51
2022-09-12T11:27:33.634Z,1006.49
2022-09-12T11:28:33.609Z,1006.50
2022-09-12T11:29:33.588Z,1006.51
2022-09-12T11:30:33.609Z,1006.50
2022-09-12T11:31:33.540Z,1006.50
2022-09-12T11:32:33.515Z,1006.46
2022-09-12T11:33:33.493Z,1006.46
2022-09-12T11:34:33.474Z,1006.45
2022-09-12T11:35:33.444Z,1006.49
2022-09-12T11:36:33.420Z,1006.47
2022-09-12T11:37:33.396Z,1006.44
2022-09-12T11:38:33.376Z,1006.45
2022-09-12T11:39:33.353Z,1006.45
2022-09-12T11:40:33.445Z,1006.45
2022-09-12T11:41:33.306Z,1006.47
2022-09-12T11:42:33.283Z,1006.45
2022-09-12T11:43:33.259Z,1006.43
2022-09-12T11:44:33.239Z,1006.48
2022-09-12T11:45:33.212Z,1006.44
2022-09-12T11:46:33.195Z,1006.43
2022-09-12T11:47:33.168Z,1006.39
2022-09-12T11:48:33.144Z,1006.41
2022-09-12T11:49:35.652Z,1006.44
2022-09-12T11:50:33.099Z,1006.39
2022-09-12T11:51:33.074Z,1006.45
2022-09-12T11:52:33.053Z,1006.37
2022-09-12T11:53:33.027Z,1006.40
2022-09-12T11:54:33.006Z,1006.37
2022-09-12T11:55:32.980Z,1006.34
2022-09-12T11:56:32.965Z,1006.31
2022-09-12T11:57:32.937Z,1006.32
2022-09-12T11:58:32.923Z,1006.37
2022-09-12T11:59:32.890Z,1006.38
2022-09-12T12:00:32.877Z,1006.36
2022-09-12T12:01:33.841Z,1006.37
2022-09-12T12:02:32.923Z,1006.35
2022-09-12T12:03:32.871Z,1006.33
2022-09-12T12:04:32.783Z,1006.25
2022-09-12T12:05:32.762Z,1006.24
2022-09-12T12:06:32.738Z,1006.27
2022-09-12T12:07:32.717Z,1006.23
2022-09-12T12:08:32.697Z,1006.23
2022-09-12T12:09:32.671Z,1006.26
2022-09-12T12:10:32.650Z,1006.28
2022-09-12T12:11:32.633Z,1006.21
2022-09-12T12:12:32.613Z,1006.23
2022-09-12T12:13:32.593Z,1006.23
2022-09-12T12:14:32.565Z,1006.20
2022-09-12T12:15:32.597Z,1006.19
2022-09-12T12:16:32.518Z,1006.21
2022-09-12T12:17:32.499Z,1006.17
2022-09-12T12:18:32.478Z,1006.19
2022-09-12T12:19:32.461Z,1006.19
2022-09-12T12:20:32.433Z,1006.10
2022-09-12T12:21:32.411Z,1006.15
2022-09-12T12:22:32.391Z,1006.16
2022-09-12T12:23:32.449Z,1006.15
2022-09-12T12:24:32.349Z,1006.23
2022-09-12T12:25:32.330Z,1006.20
2022-09-12T12:26:32.305Z,1006.17
2022-09-12T12:27:32.277Z,1006.13
2022-09-12T12:28:34.920Z,1006.12
2022-09-12T12:29:32.278Z,1006.08
2022-09-12T12:30:32.219Z,1006.10
2022-09-12T12:31:32.253Z,1006.09
2022-09-12T12:32:32.182Z,1006.10
2022-09-12T12:33:32.159Z,1006.10
2022-09-12T12:34:32.132Z,1006.07
2022-09-12T12:35:32.107Z,1006.07
2022-09-12T12:36:32.089Z,1006.06
2022-09-12T12:37:32.069Z,1005.99
2022-09-12T12:38:32.054Z,1006.00
2022-09-12T12:39:32.073Z,1005.97
2022-09-12T12:40:32.016Z,1005.95
2022-09-12T12:41:32.001Z,1005.91
2022-09-12T12:42:31.964Z,1005.85
2022-09-12T12:43:31.950Z,1005.85
2022-09-12T12:44:31.922Z,1005.83
2022-09-12T12:45:31.900Z,1005.79
2022-09-12T12:46:31.928Z,1005.83
2022-09-12T12:47:31.853Z,1005.82
2022-09-12T12:48:31.844Z,1005.82
2022-09-12T12:49:31.822Z,1005.81
2022-09-12T12:50:31.794Z,1005.83
2022-09-12T12:51:31.775Z,1005.82
2022-09-12T12:52:31.753Z,1005.78
2022-09-12T12:53:31.732Z,1005.77
2022-09-12T12:54:31.708Z,1005.82
2022-09-12T12:55:31.691Z,1005.75
2022-09-12T12:56:31.718Z,1005.79
2022-09-12T12:57:31.662Z,1005.72
2022-09-12T12:58:31.633Z,1005.71
2022-09-12T12:59:31.606Z,1005.67
2022-09-12T13:00:31.589Z,1005.65
2022-09-12T13:01:31.593Z,1005.68
2022-09-12T13:02:31.595Z,1005.63
2022-09-12T13:03:31.525Z,1005.61
2022-09-12T13:04:31.504Z,1005.62
2022-09-12T13:05:31.487Z,1005.62
2022-09-12T13:06:31.471Z,1005.62
2022-09-12T13:07:31.442Z,1005.64
2022-09-12T13:08:31.423Z,1005.61
2022-09-12T13:09:31.405Z,1005.61
2022-09-12T13:10:31.385Z,1005.57
2022-09-12T13:11:31.371Z,1005.60
2022-09-12T13:12:31.340Z,1005.59
2022-09-12T13:13:31.319Z,1005.56
2022-09-12T13:14:31.305Z,1005.55
2022-09-12T13:15:31.335Z,1005.51
2022-09-12T13:16:31.261Z,1005.52
2022-09-12T13:17:31.244Z,1005.55
2022-09-12T13:18:31.221Z,1005.56
2022-09-12T13:19:31.196Z,1005.58
2022-09-12T13:20:31.208Z,1005.54
2022-09-12T13:21:31.158Z,1005.57
2022-09-12T13:22:31.139Z,1005.51
2022-09-12T13:23:31.116Z,1005.53
2022-09-12T13:24:31.114Z,1005.54
2022-09-12T13:25:31.082Z,1005.55
2022-09-12T13:26:31.054Z,1005.55
2022-09-12T13:27:52.038Z,1005.53
2022-09-12T13:28:31.015Z,1005.53
2022-09-12T13:29:30.996Z,1005.48
2022-09-12T13:30:30.978Z,1005.47
2022-09-12T13:31:31.001Z,1005.47
2022-09-12T13:32:30.940Z,1005.47
2022-09-12T13:33:30.929Z,1005.47
2022-09-12T13:34:30.902Z,1005.46
2022-09-12T13:35:30.882Z,1005.51
2022-09-12T13:36:30.862Z,1005.50
2022-09-12T13:37:30.847Z,1005.47
2022-09-12T13:38:30.823Z,1005.49
2022-09-12T13:39:30.823Z,1005.46
2022-09-12T13:40:30.790Z,1005.45
2022-09-12T13:41:30.772Z,1005.42
2022-09-12T13:42:30.763Z,1005.35
2022-09-12T13:43:30.727Z,1005.44
2022-09-12T13:44:30.707Z,1005.43
2022-09-12T13:45:30.690Z,1005.42
2022-09-12T13:46:30.725Z,1005.43
2022-09-12T13:47:30.669Z,1005.42
2022-09-12T13:48:30.632Z,1005.39
2022-09-12T13:49:30.611Z,1005.42
2022-09-12T13:50:30.604Z,1005.39
2022-09-12T13:51:30.577Z,1005.40
2022-09-12T13:52:30.554Z,1005.32
2022-09-12T13:53:30.540Z,1005.27
2022-09-12T13:54:30.516Z,1005.28
2022-09-12T13:55:30.496Z,1005.26
2022-09-12T13:56:30.476Z,1005.27
2022-09-12T13:57:30.464Z,1005.29
2022-09-12T13:58:30.442Z,1005.30
2022-09-12T13:59:30.424Z,1005.31
2022-09-12T14:00:30.397Z,1005.27
2022-09-12T14:01:30.418Z,1005.26
2022-09-12T14:02:30.400Z,1005.27
2022-09-12T14:03:30.342Z,1005.25
2022-09-12T14:04:30.328Z,1005.26
2022-09-12T14:05:30.310Z,1005.28
2022-09-12T14:06:30.288Z,1005.26
2022-09-12T14:07:30.267Z,1005.22
2022-09-12T14:08:30.244Z,1005.30
2022-09-12T14:09:30.236Z,1005.25
2022-09-12T14:10:30.224Z,1005.22
2022-09-12T14:11:30.202Z,1005.20
2022-09-12T14:12:30.168Z,1005.15
2022-09-12T14:13:30.163Z,1005.11
2022-09-12T14:14:30.130Z,1005.12
2022-09-12T14:15:30.166Z,1005.15
2022-09-12T14:16:30.089Z,1005.10
2022-09-12T14:17:30.073Z,1005.10
2022-09-12T14:18:30.065Z,1005.09
2022-09-12T14:19:30.040Z,1005.04
2022-09-12T14:20:30.017Z,1005.02
2022-09-12T14:21:29.995Z,1004.95
2022-09-12T14:22:39.948Z,1004.98
2022-09-12T14:23:29.961Z,1004.95
2022-09-12T14:24:29.941Z,1004.95
2022-09-12T14:25:29.922Z,1004.93
2022-09-12T14:26:29.913Z,1004.90
2022-09-12T14:27:29.883Z,1004.86
2022-09-12T14:28:29.859Z,1004.85
2022-09-12T14:29:29.843Z,1004.87
2022-09-12T14:30:29.823Z,1004.86
2022-09-12T14:31:29.830Z,1004.85
2022-09-12T14:32:29.782Z,1004.86
2022-09-12T14:33:29.766Z,1004.79
2022-09-12T14:34:29.745Z,1004.75
2022-09-12T14:35:29.727Z,1004.74
2022-09-12T14:36:29.706Z,1004.80
2022-09-12T14:37:29.695Z,1004.77
2022-09-12T14:38:29.672Z,1004.76
2022-09-12T14:39:29.649Z,1004.72
2022-09-12T14:40:29.632Z,1004.71
2022-09-12T14:41:29.625Z,1004.67
2022-09-12T14:42:29.592Z,1004.65
2022-09-12T14:43:29.571Z,1004.62
2022-09-12T14:44:29.547Z,1004.65
2022-09-12T14:45:29.532Z,1004.61
2022-09-12T14:46:29.557Z,1004.65
2022-09-12T14:47:29.587Z,1004.62
2022-09-12T14:48:29.470Z,1004.64
2022-09-12T14:49:29.447Z,1004.67
2022-09-12T14:50:29.423Z,1004.70
2022-09-12T14:51:29.408Z,1004.64